createdAt,value
2017-08-09T00:01:23.618Z,31.05
2017-08-09T00:03:51.828Z,30.55
2017-08-09T00:06:19.289Z,32.05
2017-08-09T00:08:46.762Z,31.52
2017-08-09T00:11:14.218Z,32.65
2017-08-09T00:13:41.726Z,32.60
2017-08-09T00:16:09.954Z,35.65
2017-08-09T00:18:37.408Z,30.88
2017-08-09T00:21:04.949Z,32.45
2017-08-09T00:23:32.411Z,32.22
2017-08-09T00:25:59.859Z,31.00
2017-08-09T00:28:27.350Z,32.35
2017-08-09T00:30:54.903Z,32.60
2017-08-09T00:33:22.366Z,32.78
2017-08-09T00:35:50.581Z,30.35
2017-08-09T00:38:18.050Z,32.30
2017-08-09T00:40:45.518Z,33.97
2017-08-09T00:43:13.063Z,33.80
2017-08-09T00:45:40.511Z,33.03
2017-08-09T00:48:08.082Z,33.10
2017-08-09T00:50:35.534Z,34.53
2017-08-09T00:53:03.004Z,36.35
2017-08-09T00:55:30.448Z,36.92
2017-08-09T00:57:57.946Z,39.50
2017-08-09T01:00:25.514Z,41.08
2017-08-09T01:02:53.007Z,42.10
2017-08-09T01:05:20.518Z,41.93
2017-08-09T01:07:47.963Z,42.62
2017-08-09T01:10:15.427Z,41.83
2017-08-09T01:12:42.889Z,41.83
2017-08-09T01:15:10.380Z,43.28
2017-08-09T01:17:38.575Z,42.40
2017-08-09T01:20:06.078Z,43.13
2017-08-09T01:22:33.541Z,44.50
2017-08-09T01:25:01.085Z,41.85
2017-08-09T01:27:28.530Z,43.30
2017-08-09T01:29:56.014Z,42.85
2017-08-09T01:32:23.459Z,41.65
2017-08-09T01:34:50.923Z,43.58
2017-08-09T01:37:18.346Z,43.87
2017-08-09T01:39:45.798Z,44.25
2017-08-09T01:42:13.303Z,44.67
2017-08-09T01:44:40.733Z,44.70
2017-08-09T01:47:08.190Z,45.03
2017-08-09T01:49:35.634Z,43.95
2017-08-09T01:52:03.121Z,44.03
2017-08-09T01:54:30.651Z,46.22
2017-08-09T01:56:58.147Z,45.38
2017-08-09T01:59:25.686Z,45.00
2017-08-09T02:01:53.143Z,42.15
2017-08-09T02:04:20.577Z,43.00
2017-08-09T02:06:48.136Z,42.55
2017-08-09T02:09:15.555Z,42.95
2017-08-09T02:11:43.782Z,44.00
2017-08-09T02:14:11.214Z,41.33
2017-08-09T02:16:38.722Z,41.30
2017-08-09T02:19:06.250Z,41.33
2017-08-09T02:21:33.691Z,38.75
2017-08-09T02:24:01.175Z,37.63
2017-08-09T02:26:28.811Z,38.40
2017-08-09T02:28:56.251Z,36.10
2017-08-09T02:31:23.700Z,36.17
2017-08-09T02:33:51.282Z,34.10
2017-08-09T02:36:18.716Z,33.50
2017-08-09T02:38:46.222Z,33.72
2017-08-09T02:41:13.662Z,33.17
2017-08-09T02:43:41.103Z,32.90
2017-08-09T02:46:08.590Z,31.23
2017-08-09T02:48:36.122Z,29.73
2017-08-09T02:51:03.538Z,30.23
2017-08-09T02:53:31.770Z,29.67
2017-08-09T02:55:59.203Z,25.75
2017-08-09T02:58:26.646Z,24.00
2017-08-09T03:00:54.105Z,20.02
2017-08-09T03:03:21.542Z,20.20
2017-08-09T03:05:49.766Z,20.37
2017-08-09T03:08:17.203Z,19.30
2017-08-09T03:10:44.690Z,18.90
2017-08-09T03:13:12.127Z,18.95
2017-08-09T03:15:39.598Z,19.23
2017-08-09T03:18:07.034Z,17.35
2017-08-09T03:20:34.503Z,17.45
2017-08-09T03:23:01.942Z,16.98
2017-08-09T03:25:29.504Z,18.10
2017-08-09T03:27:57.076Z,18.02
2017-08-09T03:30:24.536Z,17.73
2017-08-09T03:32:52.076Z,18.83
2017-08-09T03:35:19.550Z,20.70
2017-08-09T03:37:46.987Z,20.00
2017-08-09T03:40:14.431Z,21.75
2017-08-09T03:42:41.867Z,21.33
2017-08-09T03:45:10.095Z,20.20
2017-08-09T03:47:37.538Z,20.10
2017-08-09T03:50:05.093Z,20.77
2017-08-09T03:52:32.516Z,20.52
2017-08-09T03:55:00.034Z,20.55
2017-08-09T03:57:27.502Z,20.52
2017-08-09T03:59:54.946Z,20.35
2017-08-09T04:02:22.509Z,20.62
2017-08-09T04:04:49.955Z,18.97
2017-08-09T04:07:17.526Z,18.92
2017-08-09T04:09:44.972Z,18.27
2017-08-09T04:12:12.413Z,18.80
2017-08-09T04:14:39.852Z,18.65
2017-08-09T04:17:07.318Z,18.90
2017-08-09T04:19:34.779Z,20.00
2017-08-09T04:22:02.237Z,20.80
2017-08-09T04:24:29.694Z,19.85
2017-08-09T04:26:57.284Z,20.70
2017-08-09T04:29:24.812Z,21.37
2017-08-09T04:31:52.270Z,22.50
2017-08-09T04:34:19.714Z,23.05
2017-08-09T04:36:47.150Z,21.83
2017-08-09T04:39:14.586Z,23.17
2017-08-09T04:41:42.022Z,22.90
2017-08-09T04:44:10.242Z,23.35
2017-08-09T04:46:37.745Z,25.48
2017-08-09T04:49:05.166Z,23.62
2017-08-09T04:51:32.607Z,25.83
2017-08-09T04:54:00.050Z,25.40
2017-08-09T04:56:27.487Z,25.27
2017-08-09T04:58:55.736Z,25.67
2017-08-09T05:01:23.179Z,25.40
2017-08-09T05:03:50.656Z,24.73
2017-08-09T05:06:18.215Z,27.58
2017-08-09T05:08:45.646Z,26.10
2017-08-09T05:11:13.107Z,28.12
2017-08-09T05:13:40.542Z,29.05
2017-08-09T05:16:08.022Z,29.60
2017-08-09T05:18:35.454Z,29.48
2017-08-09T05:21:02.917Z,28.67
2017-08-09T05:23:31.015Z,29.37
2017-08-09T05:25:58.527Z,29.70
2017-08-09T05:28:26.160Z,30.30
2017-08-09T05:30:53.639Z,29.35
2017-08-09T05:33:21.184Z,31.25
2017-08-09T05:35:48.666Z,29.92
2017-08-09T05:38:16.230Z,34.20
2017-08-09T05:40:43.674Z,30.67
2017-08-09T05:43:11.119Z,31.42
2017-08-09T05:45:38.577Z,31.30
2017-08-09T05:48:06.048Z,29.42
2017-08-09T05:50:33.505Z,30.60
2017-08-09T05:53:00.968Z,29.40
2017-08-09T05:55:28.493Z,29.75
2017-08-09T05:57:56.054Z,28.85
2017-08-09T06:00:23.593Z,28.67
2017-08-09T06:02:51.037Z,29.10
2017-08-09T06:05:18.550Z,28.35
2017-08-09T06:07:46.016Z,27.02
2017-08-09T06:10:13.582Z,26.92
2017-08-09T06:12:41.791Z,26.67
2017-08-09T06:15:09.243Z,27.13
2017-08-09T06:17:36.688Z,24.37
2017-08-09T06:20:04.226Z,26.85
2017-08-09T06:22:31.658Z,26.63
2017-08-09T06:24:59.120Z,25.05
2017-08-09T06:27:26.575Z,26.92
2017-08-09T06:29:54.120Z,25.15
2017-08-09T06:32:21.677Z,24.27
2017-08-09T06:34:49.531Z,24.55
2017-08-09T06:37:16.993Z,25.27
2017-08-09T06:39:44.435Z,24.23
2017-08-09T06:42:12.000Z,22.62
2017-08-09T06:44:39.448Z,23.45
2017-08-09T06:47:06.940Z,23.33
2017-08-09T06:49:34.382Z,20.58
2017-08-09T06:52:01.839Z,20.75
2017-08-09T06:54:29.517Z,21.20
2017-08-09T06:56:57.136Z,20.67
2017-08-09T06:59:24.620Z,19.15
2017-08-09T07:01:52.086Z,18.05
2017-08-09T07:04:19.542Z,19.75
2017-08-09T07:06:47.051Z,19.35
2017-08-09T07:09:14.607Z,17.37
2017-08-09T07:11:42.144Z,19.40
2017-08-09T07:14:09.603Z,19.10
2017-08-09T07:16:37.062Z,18.70
2017-08-09T07:19:04.497Z,16.27
2017-08-09T07:21:31.994Z,15.85
2017-08-09T07:23:59.430Z,15.30
2017-08-09T07:26:26.884Z,16.00
2017-08-09T07:28:54.341Z,15.88
2017-08-09T07:31:21.780Z,15.70
2017-08-09T07:33:49.266Z,15.80
2017-08-09T07:36:16.706Z,15.73
2017-08-09T07:38:44.168Z,14.75
2017-08-09T07:41:12.533Z,14.18
2017-08-09T07:43:39.993Z,14.87
2017-08-09T07:46:07.463Z,14.43
2017-08-09T07:48:34.924Z,13.57
2017-08-09T07:51:02.366Z,13.05
2017-08-09T07:53:30.202Z,13.40
2017-08-09T07:55:57.686Z,13.90
2017-08-09T07:58:25.674Z,14.43
2017-08-09T08:00:53.117Z,13.90
2017-08-09T08:03:20.582Z,13.93
2017-08-09T08:05:48.021Z,13.48
2017-08-09T08:08:15.491Z,13.75
2017-08-09T08:10:43.001Z,12.20
2017-08-09T08:13:10.501Z,11.60
2017-08-09T08:15:38.054Z,12.30
2017-08-09T08:18:05.562Z,11.00
2017-08-09T08:20:33.100Z,10.65
2017-08-09T08:23:00.526Z,12.73
2017-08-09T08:25:27.967Z,11.30
2017-08-09T08:27:56.170Z,10.93
2017-08-09T08:30:23.659Z,10.90
2017-08-09T08:32:51.101Z,11.40
2017-08-09T08:35:18.564Z,12.18
2017-08-09T08:37:46.004Z,12.10
2017-08-09T08:40:13.473Z,11.10
2017-08-09T08:42:40.950Z,12.30
2017-08-09T08:45:08.403Z,13.00
2017-08-09T08:47:35.835Z,12.00
2017-08-09T08:50:03.307Z,12.88
2017-08-09T08:52:30.880Z,13.40
2017-08-09T08:54:58.338Z,13.43
2017-08-09T08:57:25.890Z,11.30
2017-08-09T08:59:53.329Z,12.48
2017-08-09T09:02:20.979Z,13.30
2017-08-09T09:04:48.445Z,11.80
2017-08-09T09:07:15.910Z,14.93
2017-08-09T09:09:43.478Z,13.50
2017-08-09T09:12:11.011Z,16.67
2017-08-09T09:14:39.323Z,16.53
2017-08-09T09:17:06.859Z,16.55
2017-08-09T09:19:34.474Z,16.98
2017-08-09T09:22:02.033Z,17.53
2017-08-09T09:24:29.462Z,16.20
2017-08-09T09:26:56.895Z,13.80
2017-08-09T09:29:25.145Z,12.73
2017-08-09T09:31:52.586Z,13.60
2017-08-09T09:34:20.066Z,12.40
2017-08-09T09:36:47.566Z,13.10
2017-08-09T09:39:15.045Z,12.40
2017-08-09T09:41:42.495Z,14.00
2017-08-09T09:44:09.919Z,15.25
2017-08-09T09:46:38.150Z,15.67
2017-08-09T09:49:05.606Z,13.45
2017-08-09T09:51:33.126Z,14.00
2017-08-09T09:54:00.821Z,14.55
2017-08-09T09:56:28.278Z,16.90
2017-08-09T09:58:55.915Z,16.70
2017-08-09T10:01:23.409Z,17.48
2017-08-09T10:03:50.873Z,16.10
2017-08-09T10:06:18.311Z,15.05
2017-08-09T10:08:45.753Z,14.75
2017-08-09T10:11:13.231Z,14.20
2017-08-09T10:13:40.770Z,14.93
2017-08-09T10:16:08.331Z,12.77
2017-08-09T10:18:35.786Z,12.90
2017-08-09T10:21:03.242Z,14.30
2017-08-09T10:23:31.115Z,14.93
2017-08-09T10:25:58.569Z,15.55
2017-08-09T10:28:26.006Z,16.75
2017-08-09T10:30:53.446Z,16.58
2017-08-09T10:33:20.938Z,16.52
2017-08-09T10:35:48.394Z,15.68
2017-08-09T10:38:15.952Z,15.65
2017-08-09T10:40:43.410Z,17.55
2017-08-09T10:43:10.876Z,16.58
2017-08-09T10:45:38.330Z,17.40
2017-08-09T10:48:05.866Z,17.87
2017-08-09T10:50:33.318Z,17.02
2017-08-09T10:53:00.804Z,17.62
2017-08-09T10:55:28.252Z,19.40
2017-08-09T10:57:55.723Z,18.65
2017-08-09T11:00:23.246Z,19.17
2017-08-09T11:02:50.727Z,18.45
2017-08-09T11:05:18.262Z,17.60
2017-08-09T11:07:45.746Z,18.42
2017-08-09T11:10:13.227Z,16.77
2017-08-09T11:12:40.734Z,18.75
2017-08-09T11:15:08.206Z,17.27
2017-08-09T11:17:35.689Z,18.73
2017-08-09T11:20:03.140Z,20.12
2017-08-09T11:22:30.593Z,20.62
2017-08-09T11:24:58.046Z,20.35
2017-08-09T11:27:25.490Z,19.65
2017-08-09T11:29:52.961Z,19.90
2017-08-09T11:32:20.406Z,20.60
2017-08-09T11:34:47.954Z,20.83
2017-08-09T11:37:15.443Z,20.05
2017-08-09T11:39:42.970Z,21.40
2017-08-09T11:42:10.521Z,21.20
2017-08-09T11:44:38.074Z,19.63
2017-08-09T11:47:05.604Z,20.52
2017-08-09T11:49:33.197Z,21.73
2017-08-09T11:52:00.659Z,21.42
2017-08-09T11:54:28.817Z,21.70
2017-08-09T11:56:56.258Z,18.12
2017-08-09T11:59:23.786Z,19.67
2017-08-09T12:01:51.301Z,18.00
2017-08-09T12:04:18.769Z,20.80
2017-08-09T12:06:46.233Z,21.58
2017-08-09T12:09:14.464Z,21.37
2017-08-09T12:11:41.947Z,20.95
2017-08-09T12:14:09.379Z,20.23
2017-08-09T12:16:36.846Z,19.30
2017-08-09T12:19:04.341Z,20.25
2017-08-09T12:21:31.814Z,20.27
2017-08-09T12:23:59.312Z,17.87
2017-08-09T12:26:26.778Z,18.20
2017-08-09T12:28:54.235Z,16.33
2017-08-09T12:31:21.683Z,17.55
2017-08-09T12:33:49.135Z,17.50
2017-08-09T12:36:16.578Z,18.45
2017-08-09T12:38:44.032Z,16.75
2017-08-09T12:41:11.494Z,17.33
2017-08-09T12:43:39.047Z,16.83
2017-08-09T12:46:06.462Z,17.23
2017-08-09T12:48:34.776Z,15.35
2017-08-09T12:51:02.210Z,15.40
2017-08-09T12:53:29.716Z,16.80
2017-08-09T12:55:57.159Z,16.07
2017-08-09T12:58:24.622Z,15.95
2017-08-09T13:00:52.068Z,16.47
2017-08-09T13:03:19.564Z,17.02
2017-08-09T13:05:47.074Z,15.30
2017-08-09T13:08:14.529Z,15.50
2017-08-09T13:10:42.007Z,13.70
2017-08-09T13:13:09.474Z,11.80
2017-08-09T13:15:36.925Z,12.00
2017-08-09T13:18:04.387Z,11.70
2017-08-09T13:20:31.942Z,10.85
2017-08-09T13:22:59.404Z,10.70
2017-08-09T13:25:27.725Z,10.60
2017-08-09T13:27:55.146Z,10.27
2017-08-09T13:30:22.591Z,11.17
2017-08-09T13:32:50.829Z,11.10
2017-08-09T13:35:18.295Z,11.15
2017-08-09T13:37:45.843Z,10.15
2017-08-09T13:40:13.281Z,9.82
2017-08-09T13:42:40.761Z,9.65
2017-08-09T13:45:08.195Z,9.35
2017-08-09T13:47:35.656Z,8.98
2017-08-09T13:50:03.228Z,9.57
2017-08-09T13:52:30.727Z,10.27
2017-08-09T13:54:58.158Z,11.40
2017-08-09T13:57:25.634Z,10.30
2017-08-09T13:59:53.066Z,10.68
2017-08-09T14:02:20.711Z,10.18
2017-08-09T14:04:48.141Z,9.00
2017-08-09T14:07:15.591Z,8.95
2017-08-09T14:09:43.018Z,8.40
2017-08-09T14:12:11.254Z,7.68
2017-08-09T14:14:38.722Z,7.82
2017-08-09T14:17:06.203Z,7.53
2017-08-09T14:19:34.429Z,6.75
2017-08-09T14:22:01.902Z,7.20
2017-08-09T14:24:29.569Z,7.00
2017-08-09T14:26:57.015Z,9.77
2017-08-09T14:29:24.468Z,7.47
2017-08-09T14:31:52.027Z,7.25
2017-08-09T14:34:19.483Z,7.40
2017-08-09T14:36:47.024Z,6.65
2017-08-09T14:39:14.460Z,6.62
2017-08-09T14:41:41.894Z,6.15
2017-08-09T14:44:10.100Z,9.40
2017-08-09T14:46:37.734Z,6.65
2017-08-09T14:49:05.955Z,6.40
2017-08-09T14:51:33.409Z,5.50
2017-08-09T14:54:00.839Z,4.53
2017-08-09T14:56:28.330Z,4.77
2017-08-09T14:58:55.778Z,4.87
2017-08-09T15:01:23.283Z,4.33
2017-08-09T15:03:50.730Z,5.00
2017-08-09T15:06:18.384Z,5.30
2017-08-09T15:08:45.818Z,4.90
2017-08-09T15:11:13.244Z,4.80
2017-08-09T15:13:40.687Z,5.12
2017-08-09T15:16:08.266Z,6.03
2017-08-09T15:18:35.719Z,5.80
2017-08-09T15:21:03.193Z,5.30
2017-08-09T15:23:30.757Z,5.70
2017-08-09T15:25:58.181Z,5.68
2017-08-09T15:28:25.634Z,5.40
2017-08-09T15:30:53.058Z,6.10
2017-08-09T15:33:21.398Z,5.73
2017-08-09T15:35:48.889Z,5.47
2017-08-09T15:38:16.407Z,6.45
2017-08-09T15:40:43.954Z,7.28
2017-08-09T15:43:11.428Z,6.93
2017-08-09T15:45:38.878Z,6.78
2017-08-09T15:48:06.335Z,7.20
2017-08-09T15:50:33.837Z,8.30
2017-08-09T15:53:02.066Z,7.20
2017-08-09T15:55:29.558Z,7.32
2017-08-09T15:57:56.975Z,6.90
2017-08-09T16:00:24.523Z,7.25
2017-08-09T16:02:52.390Z,7.10
2017-08-09T16:05:20.686Z,7.47
2017-08-09T16:07:48.239Z,6.95
2017-08-09T16:10:15.699Z,7.70
2017-08-09T16:12:43.167Z,8.35
2017-08-09T16:15:10.627Z,8.60
2017-08-09T16:17:38.178Z,9.20
2017-08-09T16:20:05.639Z,8.38
2017-08-09T16:22:33.058Z,7.80
2017-08-09T16:25:00.790Z,7.80
2017-08-09T16:27:28.994Z,8.30
2017-08-09T16:29:56.490Z,8.50
2017-08-09T16:32:24.051Z,9.85
2017-08-09T16:34:51.516Z,8.80
2017-08-09T16:37:18.974Z,9.00
2017-08-09T16:39:46.561Z,8.90
2017-08-09T16:42:14.806Z,8.60
2017-08-09T16:44:42.246Z,12.77
2017-08-09T16:47:09.702Z,8.40
2017-08-09T16:49:37.154Z,8.38
2017-08-09T16:52:04.618Z,9.40
2017-08-09T16:54:32.072Z,8.70
2017-08-09T16:56:59.538Z,8.40
2017-08-09T16:59:27.075Z,8.40
2017-08-09T17:01:54.524Z,9.52
2017-08-09T17:04:22.008Z,8.90
2017-08-09T17:06:49.562Z,8.10
2017-08-09T17:09:17.015Z,8.07
2017-08-09T17:11:44.527Z,8.10
2017-08-09T17:14:12.783Z,8.25
2017-08-09T17:16:40.227Z,8.30
2017-08-09T17:19:07.654Z,8.10
2017-08-09T17:21:35.101Z,7.60
2017-08-09T17:24:02.534Z,7.90
2017-08-09T17:26:30.039Z,7.22
2017-08-09T17:28:57.475Z,7.95
2017-08-09T17:31:24.943Z,7.10
2017-08-09T17:33:52.386Z,7.30
2017-08-09T17:36:19.838Z,7.72
2017-08-09T17:38:47.311Z,6.70
2017-08-09T17:41:15.158Z,7.40
2017-08-09T17:43:42.589Z,7.20
2017-08-09T17:46:10.131Z,6.90
2017-08-09T17:48:38.329Z,7.25
2017-08-09T17:51:05.827Z,6.57
2017-08-09T17:53:33.291Z,7.10
2017-08-09T17:56:00.744Z,7.05
2017-08-09T17:58:28.206Z,6.80
2017-08-09T18:00:55.658Z,7.20
2017-08-09T18:03:23.122Z,6.60
2017-08-09T18:05:50.571Z,6.80
2017-08-09T18:08:18.045Z,6.80
2017-08-09T18:10:45.578Z,7.03
2017-08-09T18:13:13.038Z,7.00
2017-08-09T18:15:40.488Z,6.87
2017-08-09T18:18:07.959Z,7.70
2017-08-09T18:20:35.386Z,7.45
2017-08-09T18:23:02.865Z,8.07
2017-08-09T18:25:30.302Z,7.87
2017-08-09T18:27:57.790Z,7.43
2017-08-09T18:30:25.226Z,7.93
2017-08-09T18:32:52.682Z,7.82
2017-08-09T18:35:20.150Z,8.40
2017-08-09T18:37:47.680Z,7.87
2017-08-09T18:40:15.122Z,7.85
2017-08-09T18:42:42.540Z,8.18
2017-08-09T18:45:10.738Z,8.27
2017-08-09T18:47:38.223Z,8.77
2017-08-09T18:50:05.694Z,9.00
2017-08-09T18:52:33.238Z,7.93
2017-08-09T18:55:00.797Z,8.50
2017-08-09T18:57:28.221Z,8.80
2017-08-09T18:59:56.543Z,8.07
2017-08-09T19:02:24.107Z,8.50
2017-08-09T19:04:51.547Z,7.87
2017-08-09T19:07:19.031Z,7.80
2017-08-09T19:09:46.498Z,8.40
2017-08-09T19:12:13.946Z,9.70
2017-08-09T19:14:41.398Z,8.93
2017-08-09T19:17:08.844Z,8.90
2017-08-09T19:19:36.310Z,8.30
2017-08-09T19:22:03.757Z,8.50
2017-08-09T19:24:31.305Z,9.85
2017-08-09T19:26:58.790Z,11.10
2017-08-09T19:29:26.324Z,10.40
2017-08-09T19:31:53.762Z,10.80
2017-08-09T19:34:21.242Z,11.05
2017-08-09T19:36:48.697Z,10.88
2017-08-09T19:39:16.184Z,11.63
2017-08-09T19:41:43.797Z,11.73
2017-08-09T19:44:11.238Z,11.80
2017-08-09T19:46:38.675Z,12.75
2017-08-09T19:49:06.874Z,14.20
2017-08-09T19:51:34.357Z,13.45
2017-08-09T19:54:01.788Z,13.00
2017-08-09T19:56:29.266Z,13.32
2017-08-09T19:58:56.733Z,17.15
2017-08-09T20:01:24.385Z,18.83
2017-08-09T20:03:51.850Z,22.05
2017-08-09T20:06:19.312Z,18.37
2017-08-09T20:08:46.746Z,15.73
2017-08-09T20:11:14.203Z,15.30
2017-08-09T20:13:41.675Z,16.10
2017-08-09T20:16:09.119Z,15.32
2017-08-09T20:18:36.583Z,16.58
2017-08-09T20:21:04.042Z,15.50
2017-08-09T20:23:31.597Z,15.80
2017-08-09T20:25:59.040Z,16.25
2017-08-09T20:28:26.523Z,17.35
2017-08-09T20:30:54.058Z,17.73
2017-08-09T20:33:21.506Z,16.30
2017-08-09T20:35:48.986Z,17.00
2017-08-09T20:38:16.446Z,17.77
2017-08-09T20:40:43.889Z,17.27
2017-08-09T20:43:11.455Z,17.85
2017-08-09T20:45:38.894Z,18.35
2017-08-09T20:48:06.371Z,18.90
2017-08-09T20:50:33.842Z,19.37
2017-08-09T20:53:01.282Z,19.80
2017-08-09T20:55:28.731Z,20.10
2017-08-09T20:57:56.219Z,19.07
2017-08-09T21:00:23.647Z,17.37
2017-08-09T21:02:51.090Z,16.50
2017-08-09T21:05:18.553Z,15.60
2017-08-09T21:07:46.018Z,17.65
2017-08-09T21:10:13.473Z,17.37
2017-08-09T21:12:40.920Z,19.10
2017-08-09T21:15:08.353Z,18.53
2017-08-09T21:17:35.926Z,18.30
2017-08-09T21:20:03.412Z,17.80
2017-08-09T21:22:30.890Z,17.45
2017-08-09T21:24:58.322Z,19.17
2017-08-09T21:27:25.955Z,17.90
2017-08-09T21:29:53.381Z,20.33
2017-08-09T21:32:20.970Z,21.08
2017-08-09T21:34:48.478Z,19.97
2017-08-09T21:37:16.781Z,20.58
2017-08-09T21:39:45.082Z,20.03
2017-08-09T21:42:12.577Z,21.02
2017-08-09T21:44:40.073Z,19.33
2017-08-09T21:47:07.751Z,19.60
2017-08-09T21:49:35.183Z,18.80
2017-08-09T21:52:02.627Z,20.27
2017-08-09T21:54:30.854Z,16.55
2017-08-09T21:56:58.298Z,16.37
2017-08-09T21:59:25.738Z,16.95
2017-08-09T22:01:53.242Z,17.10
2017-08-09T22:04:20.674Z,13.90
2017-08-09T22:06:48.224Z,14.00
2017-08-09T22:09:15.706Z,13.38
2017-08-09T22:11:43.212Z,12.80
2017-08-09T22:14:11.438Z,12.13
2017-08-09T22:16:38.914Z,12.60
2017-08-09T22:19:06.442Z,13.48
2017-08-09T22:21:33.927Z,12.37
2017-08-09T22:24:01.367Z,13.40
2017-08-09T22:26:28.816Z,14.00
2017-08-09T22:28:56.247Z,12.82
2017-08-09T22:31:23.699Z,11.90
2017-08-09T22:33:51.283Z,17.12
2017-08-09T22:36:18.730Z,12.45
2017-08-09T22:38:46.171Z,13.27
2017-08-09T22:41:13.660Z,13.90
2017-08-09T22:43:41.114Z,13.40
2017-08-09T22:46:08.542Z,13.07
2017-08-09T22:48:35.987Z,12.30
2017-08-09T22:51:03.478Z,12.63
2017-08-09T22:53:31.513Z,13.05
2017-08-09T22:55:58.959Z,13.00
2017-08-09T22:58:27.151Z,12.57
2017-08-09T23:00:54.573Z,12.50
2017-08-09T23:03:22.829Z,13.45
2017-08-09T23:05:50.255Z,13.00
2017-08-09T23:08:17.707Z,13.10
2017-08-09T23:10:45.183Z,13.90
2017-08-09T23:13:12.642Z,12.50
2017-08-09T23:15:40.090Z,13.52
2017-08-09T23:18:07.529Z,12.43
2017-08-09T23:20:34.994Z,13.10
2017-08-09T23:23:02.471Z,13.23
2017-08-09T23:25:29.915Z,14.32
2017-08-09T23:27:57.341Z,13.80
2017-08-09T23:30:24.911Z,13.25
2017-08-09T23:32:52.414Z,13.70
2017-08-09T23:35:19.846Z,14.80
2017-08-09T23:37:47.282Z,15.10
2017-08-09T23:40:14.755Z,14.33
2017-08-09T23:42:42.315Z,15.00
2017-08-09T23:45:09.872Z,14.95
2017-08-09T23:47:37.302Z,15.50
2017-08-09T23:50:04.782Z,15.43
2017-08-09T23:52:32.248Z,15.80
2017-08-09T23:54:59.681Z,16.00
2017-08-09T23:57:27.159Z,17.40
2017-08-09T23:59:54.614Z,17.00
